createdAt,value
2017-05-28T00:01:06.507Z,3.88
2017-05-28T00:03:33.577Z,4.38
2017-05-28T00:06:00.698Z,5.08
2017-05-28T00:08:27.784Z,6.80
2017-05-28T00:10:54.924Z,4.62
2017-05-28T00:13:21.996Z,4.52
2017-05-28T00:15:49.083Z,7.58
2017-05-28T00:18:16.264Z,4.58
2017-05-28T00:20:43.445Z,6.36
2017-05-28T00:23:10.572Z,4.72
2017-05-28T00:25:37.668Z,4.66
2017-05-28T00:28:04.781Z,4.46
2017-05-28T00:30:31.880Z,4.42
2017-05-28T00:32:58.984Z,4.38
2017-05-28T00:35:26.045Z,4.74
2017-05-28T00:37:52.421Z,4.30
2017-05-28T00:40:19.514Z,4.92
2017-05-28T00:42:46.565Z,4.54
2017-05-28T00:45:13.635Z,4.60
2017-05-28T00:47:40.736Z,5.08
2017-05-28T00:50:07.784Z,4.52
2017-05-28T00:52:34.861Z,5.90
2017-05-28T00:55:01.977Z,5.30
2017-05-28T00:57:29.101Z,5.38
2017-05-28T00:59:56.203Z,5.74
2017-05-28T01:02:23.276Z,4.80
2017-05-28T01:04:50.373Z,5.38
2017-05-28T01:07:16.737Z,5.52
2017-05-28T01:09:43.801Z,5.88
2017-05-28T01:12:10.875Z,5.12
2017-05-28T01:14:37.943Z,4.82
2017-05-28T01:17:05.072Z,5.08
2017-05-28T01:19:32.180Z,5.54
2017-05-28T01:21:59.287Z,6.08
2017-05-28T01:24:26.776Z,5.34
2017-05-28T01:27:01.026Z,5.14
2017-05-28T01:29:28.093Z,5.90
2017-05-28T01:31:55.214Z,5.84
2017-05-28T01:34:22.322Z,5.76
2017-05-28T01:36:49.497Z,5.40
2017-05-28T01:39:16.584Z,7.24
2017-05-28T01:41:43.669Z,5.90
2017-05-28T01:44:10.784Z,5.52
2017-05-28T01:46:37.137Z,5.08
2017-05-28T01:49:04.305Z,5.20
2017-05-28T01:51:31.397Z,5.38
2017-05-28T01:53:58.889Z,6.28
2017-05-28T01:56:25.997Z,5.70
2017-05-28T01:58:53.069Z,5.50
2017-05-28T02:01:19.650Z,10.62
2017-05-28T02:03:46.923Z,5.76
2017-05-28T02:06:14.237Z,5.96
2017-05-28T02:08:41.552Z,6.50
2017-05-28T02:11:08.851Z,8.96
2017-05-28T02:13:36.202Z,6.82
2017-05-28T02:16:03.404Z,5.96
2017-05-28T02:18:30.723Z,6.72
2017-05-28T02:20:58.021Z,6.56
2017-05-28T02:23:25.326Z,6.20
2017-05-28T02:25:52.661Z,5.60
2017-05-28T02:28:20.328Z,5.86
2017-05-28T02:30:47.614Z,6.60
2017-05-28T02:33:14.956Z,6.42
2017-05-28T02:35:42.177Z,7.38
2017-05-28T02:38:09.502Z,6.32
2017-05-28T02:40:36.826Z,6.10
2017-05-28T02:43:04.228Z,6.78
2017-05-28T02:45:31.525Z,7.06
2017-05-28T02:47:58.836Z,6.74
2017-05-28T02:50:26.153Z,6.68
2017-05-28T02:52:53.628Z,6.34
2017-05-28T02:55:20.937Z,7.34
2017-05-28T02:57:48.323Z,6.92
2017-05-28T03:00:15.626Z,6.86
2017-05-28T03:02:42.829Z,6.28
2017-05-28T03:05:10.156Z,7.00
2017-05-28T03:07:37.372Z,6.08
2017-05-28T03:10:04.672Z,6.90
2017-05-28T03:12:32.228Z,6.18
2017-05-28T03:14:59.579Z,6.78
2017-05-28T03:17:26.877Z,7.12
2017-05-28T03:19:54.197Z,6.28
2017-05-28T03:22:21.516Z,6.36
2017-05-28T03:24:48.868Z,6.88
2017-05-28T03:27:16.209Z,7.10
2017-05-28T03:29:43.536Z,9.16
2017-05-28T03:32:10.893Z,6.98
2017-05-28T03:34:38.212Z,6.82
2017-05-28T03:37:05.557Z,9.10
2017-05-28T03:39:32.795Z,8.50
2017-05-28T03:42:00.108Z,8.34
2017-05-28T03:44:27.820Z,7.62
2017-05-28T03:46:55.128Z,10.22
2017-05-28T03:49:22.447Z,7.40
2017-05-28T03:51:49.669Z,8.88
2017-05-28T03:54:17.000Z,8.54
2017-05-28T03:56:44.341Z,7.86
2017-05-28T03:59:11.547Z,7.98
2017-05-28T04:01:38.844Z,8.46
2017-05-28T04:04:06.094Z,9.10
2017-05-28T04:06:33.344Z,8.96
2017-05-28T04:09:00.660Z,8.78
2017-05-28T04:11:27.993Z,8.34
2017-05-28T04:13:55.313Z,8.82
2017-05-28T04:16:22.572Z,8.88
2017-05-28T04:18:49.880Z,10.28
2017-05-28T04:21:17.181Z,8.84
2017-05-28T04:23:44.510Z,10.16
2017-05-28T04:26:11.832Z,12.12
2017-05-28T04:28:39.137Z,10.90
2017-05-28T04:31:06.436Z,13.08
2017-05-28T04:33:33.605Z,15.22
2017-05-28T04:36:00.966Z,15.10
2017-05-28T04:38:28.203Z,18.12
2017-05-28T04:43:29.655Z,17.24
2017-05-28T04:45:56.953Z,20.32
2017-05-28T04:48:24.146Z,19.56
2017-05-28T04:50:51.449Z,20.56
2017-05-28T04:53:18.666Z,22.40
2017-05-28T04:55:45.876Z,24.62
2017-05-28T04:58:13.249Z,22.58
2017-05-28T05:00:40.588Z,22.82
2017-05-28T05:03:07.153Z,22.38
2017-05-28T05:05:34.493Z,23.48
2017-05-28T05:08:01.806Z,22.64
2017-05-28T05:10:29.135Z,27.06
2017-05-28T05:12:56.560Z,22.82
2017-05-28T05:15:23.916Z,19.34
2017-05-28T05:17:51.230Z,23.84
2017-05-28T05:20:18.865Z,27.62
2017-05-28T05:22:46.201Z,20.68
2017-05-28T05:25:13.757Z,22.10
2017-05-28T05:27:41.064Z,19.66
2017-05-28T05:30:08.402Z,22.56
2017-05-28T05:32:35.830Z,21.68
2017-05-28T05:35:03.153Z,19.18
2017-05-28T05:37:30.699Z,21.26
2017-05-28T05:39:57.892Z,20.36
2017-05-28T05:42:25.112Z,19.52
2017-05-28T05:44:52.371Z,20.88
2017-05-28T05:47:19.697Z,19.88
2017-05-28T05:49:47.048Z,20.36
2017-05-28T05:52:14.365Z,18.68
2017-05-28T05:54:41.712Z,20.78
2017-05-28T05:57:09.072Z,17.48
2017-05-28T05:59:36.389Z,18.28
2017-05-28T06:02:03.703Z,19.78
2017-05-28T06:04:31.006Z,17.72
2017-05-28T06:06:57.565Z,16.74
2017-05-28T06:09:24.859Z,16.52
2017-05-28T06:11:52.172Z,17.74
2017-05-28T06:14:19.501Z,17.42
2017-05-28T06:16:46.853Z,16.62
2017-05-28T06:19:14.078Z,17.26
2017-05-28T06:21:41.388Z,20.88
2017-05-28T06:24:08.709Z,19.12
2017-05-28T06:26:36.020Z,16.46
2017-05-28T06:29:03.680Z,18.84
2017-05-28T06:31:30.976Z,22.06
2017-05-28T06:33:58.313Z,18.72
2017-05-28T06:36:25.691Z,19.12
2017-05-28T06:38:53.314Z,19.80
2017-05-28T06:41:20.698Z,20.06
2017-05-28T06:43:47.904Z,18.42
2017-05-28T06:46:15.225Z,20.56
2017-05-28T06:48:42.564Z,19.82
2017-05-28T06:51:09.888Z,20.10
2017-05-28T06:53:37.157Z,22.06
2017-05-28T06:56:04.457Z,22.10
2017-05-28T06:58:31.981Z,21.14
2017-05-28T07:00:58.571Z,25.24
2017-05-28T07:03:25.116Z,21.74
2017-05-28T07:05:52.449Z,23.26
2017-05-28T07:08:19.728Z,25.12
2017-05-28T07:10:47.031Z,21.78
2017-05-28T07:13:15.674Z,23.54
2017-05-28T07:15:42.966Z,22.42
2017-05-28T07:18:10.258Z,24.02
2017-05-28T07:20:37.631Z,25.46
2017-05-28T07:23:04.957Z,23.48
2017-05-28T07:25:32.379Z,23.70
2017-05-28T07:27:59.712Z,22.46
2017-05-28T07:30:27.450Z,22.66
2017-05-28T07:32:54.781Z,23.26
2017-05-28T07:35:22.221Z,22.10
2017-05-28T07:37:48.729Z,22.88
2017-05-28T07:40:16.121Z,23.96
2017-05-28T07:42:43.408Z,20.18
2017-05-28T07:45:16.601Z,20.54
2017-05-28T07:47:43.949Z,21.00
2017-05-28T07:50:11.276Z,20.66
2017-05-28T07:52:44.660Z,16.36
2017-05-28T07:55:12.346Z,15.02
2017-05-28T07:57:39.642Z,13.84
2017-05-28T08:00:06.885Z,11.26
2017-05-28T08:02:34.193Z,10.86
2017-05-28T08:05:01.513Z,10.30
2017-05-28T08:07:28.881Z,6.86
2017-05-28T08:09:56.201Z,9.22
2017-05-28T08:12:23.484Z,8.62
2017-05-28T08:14:50.810Z,9.26
2017-05-28T08:17:18.060Z,9.22
2017-05-28T08:19:45.409Z,10.16
2017-05-28T08:22:12.869Z,16.72
2017-05-28T08:24:40.241Z,16.36
2017-05-28T08:27:07.576Z,17.48
2017-05-28T08:29:35.078Z,17.38
2017-05-28T08:32:02.461Z,16.58
2017-05-28T08:34:31.103Z,16.70
2017-05-28T08:36:58.761Z,16.32
2017-05-28T08:39:26.038Z,15.46
2017-05-28T08:41:53.353Z,15.42
2017-05-28T08:44:20.664Z,14.08
2017-05-28T08:46:47.962Z,15.30
2017-05-28T08:49:15.280Z,14.84
2017-05-28T08:51:42.671Z,15.90
2017-05-28T08:54:10.063Z,15.36
2017-05-28T08:56:37.487Z,16.84
2017-05-28T08:59:04.704Z,15.02
2017-05-28T09:01:32.096Z,18.16
2017-05-28T09:03:59.387Z,17.98
2017-05-28T09:06:26.701Z,15.40
2017-05-28T09:08:53.897Z,18.04
2017-05-28T09:11:21.286Z,15.86
2017-05-28T09:13:48.675Z,20.36
2017-05-28T09:16:16.202Z,17.54
2017-05-28T09:18:43.598Z,16.82
2017-05-28T09:21:11.096Z,15.84
2017-05-28T09:23:38.539Z,17.78
2017-05-28T09:26:05.917Z,19.92
2017-05-28T09:28:32.517Z,23.84
2017-05-28T09:31:07.609Z,28.20
2017-05-28T09:33:34.941Z,23.80
2017-05-28T09:36:02.216Z,26.98
2017-05-28T09:38:30.035Z,26.40
2017-05-28T09:40:57.713Z,29.20
2017-05-28T09:43:25.057Z,29.60
2017-05-28T09:45:52.647Z,27.82
2017-05-28T09:48:20.059Z,33.50
2017-05-28T09:50:47.529Z,34.16
2017-05-28T09:53:14.901Z,30.28
2017-05-28T09:55:42.389Z,27.64
2017-05-28T09:58:09.696Z,32.36
2017-05-28T10:00:37.087Z,30.86
2017-05-28T10:03:04.372Z,27.80
2017-05-28T10:05:31.673Z,20.62
2017-05-28T10:07:58.953Z,28.34
2017-05-28T10:10:26.690Z,26.62
2017-05-28T10:12:54.042Z,25.54
2017-05-28T10:15:21.537Z,25.04
2017-05-28T10:17:48.877Z,30.62
2017-05-28T10:20:16.414Z,23.18
2017-05-28T10:22:43.752Z,35.48
2017-05-28T10:25:11.125Z,26.10
2017-05-28T10:27:38.776Z,25.14
2017-05-28T10:30:06.121Z,25.74
2017-05-28T10:32:33.464Z,24.26
2017-05-28T10:35:00.805Z,28.70
2017-05-28T10:37:28.192Z,30.74
2017-05-28T10:39:54.749Z,28.22
2017-05-28T10:42:22.330Z,29.10
2017-05-28T10:44:49.676Z,28.22
2017-05-28T10:47:17.051Z,27.26
2017-05-28T10:49:44.390Z,28.20
2017-05-28T10:52:11.688Z,28.44
2017-05-28T10:54:39.280Z,25.64
2017-05-28T10:57:07.069Z,24.48
2017-05-28T10:59:34.380Z,22.72
2017-05-28T11:02:01.806Z,20.78
2017-05-28T11:04:29.242Z,25.18
2017-05-28T11:06:56.941Z,24.20
2017-05-28T11:09:24.497Z,26.20
2017-05-28T11:11:51.720Z,19.64
2017-05-28T11:14:19.124Z,22.64
2017-05-28T11:16:46.427Z,22.72
2017-05-28T11:19:13.684Z,22.86
2017-05-28T11:21:44.569Z,21.58
2017-05-28T11:24:11.899Z,26.70
2017-05-28T11:26:39.134Z,23.18
2017-05-28T11:29:06.469Z,21.96
2017-05-28T11:31:33.072Z,23.76
2017-05-28T11:34:00.408Z,22.60
2017-05-28T11:36:27.778Z,19.52
2017-05-28T11:38:55.175Z,22.32
2017-05-28T11:41:22.521Z,23.58
2017-05-28T11:43:49.777Z,19.00
2017-05-28T11:46:17.069Z,18.36
2017-05-28T11:48:44.396Z,16.76
2017-05-28T11:51:11.604Z,18.52
2017-05-28T11:53:38.913Z,21.08
2017-05-28T11:56:06.221Z,17.54
2017-05-28T11:58:33.508Z,22.46
2017-05-28T12:01:00.961Z,20.22
2017-05-28T12:03:28.281Z,20.06
2017-05-28T12:05:55.595Z,19.12
2017-05-28T12:08:22.941Z,17.32
2017-05-28T12:10:50.328Z,18.52
2017-05-28T12:13:17.645Z,20.00
2017-05-28T12:15:44.993Z,18.58
2017-05-28T12:18:12.295Z,19.80
2017-05-28T12:20:39.575Z,17.80
2017-05-28T12:23:07.002Z,16.68
2017-05-28T12:25:34.308Z,16.22
2017-05-28T12:28:01.649Z,15.52
2017-05-28T12:30:28.920Z,16.06
2017-05-28T12:32:55.504Z,15.02
2017-05-28T12:35:22.749Z,13.42
2017-05-28T12:37:50.081Z,13.94
2017-05-28T12:40:17.360Z,12.80
2017-05-28T12:42:44.653Z,13.82
2017-05-28T12:45:11.959Z,13.16
2017-05-28T12:47:39.273Z,12.44
2017-05-28T12:50:06.594Z,13.52
2017-05-28T12:52:33.944Z,11.72
2017-05-28T12:55:01.253Z,11.52
2017-05-28T12:57:28.661Z,9.88
2017-05-28T12:59:56.137Z,10.56
2017-05-28T13:02:23.426Z,9.28
2017-05-28T13:04:50.858Z,12.14
2017-05-28T13:07:18.383Z,9.74
2017-05-28T13:09:45.791Z,8.62
2017-05-28T13:12:13.020Z,9.90
2017-05-28T13:14:40.325Z,11.58
2017-05-28T13:17:07.676Z,7.92
2017-05-28T13:19:34.976Z,9.50
2017-05-28T13:22:02.734Z,8.12
2017-05-28T13:24:30.251Z,8.08
2017-05-28T13:26:57.571Z,6.60
2017-05-28T13:29:25.149Z,6.46
2017-05-28T13:31:52.609Z,7.86
2017-05-28T13:34:19.917Z,8.12
2017-05-28T13:36:47.254Z,7.66
2017-05-28T13:39:14.581Z,8.58
2017-05-28T13:41:49.016Z,8.60
2017-05-28T13:44:16.416Z,8.20
2017-05-28T13:46:43.740Z,7.88
2017-05-28T13:49:11.060Z,8.76
2017-05-28T13:51:38.430Z,8.82
2017-05-28T13:54:05.828Z,8.44
2017-05-28T13:56:33.242Z,6.48
2017-05-28T13:59:00.710Z,6.98
2017-05-28T14:01:28.021Z,6.12
2017-05-28T14:03:55.370Z,6.02
2017-05-28T14:06:22.710Z,6.04
2017-05-28T14:08:50.018Z,6.28
2017-05-28T14:11:17.364Z,6.40
2017-05-28T14:13:44.670Z,6.58
2017-05-28T14:16:11.991Z,6.54
2017-05-28T14:18:39.290Z,11.34
2017-05-28T14:21:07.101Z,6.12
2017-05-28T14:23:34.432Z,6.66
2017-05-28T14:26:01.756Z,7.36
2017-05-28T14:28:29.143Z,7.08
2017-05-28T14:30:56.396Z,7.34
2017-05-28T14:33:23.761Z,6.82
2017-05-28T14:35:51.057Z,6.82
2017-05-28T14:38:18.449Z,5.72
2017-05-28T14:40:45.756Z,8.28
2017-05-28T14:43:13.056Z,7.92
2017-05-28T14:45:40.261Z,7.02
2017-05-28T14:48:07.533Z,6.46
2017-05-28T14:50:34.900Z,5.68
2017-05-28T14:53:02.348Z,5.94
2017-05-28T14:55:29.689Z,5.96
2017-05-28T14:57:57.084Z,6.08
2017-05-28T15:00:24.412Z,6.68
2017-05-28T15:02:51.725Z,6.22
2017-05-28T15:05:19.180Z,6.74
2017-05-28T15:07:46.448Z,5.92
2017-05-28T15:10:13.816Z,6.22
2017-05-28T15:12:40.385Z,7.68
2017-05-28T15:15:07.710Z,8.12
2017-05-28T15:17:35.240Z,6.42
2017-05-28T15:20:02.560Z,7.20
2017-05-28T15:22:29.901Z,6.12
2017-05-28T15:24:57.217Z,6.68
2017-05-28T15:27:24.519Z,7.02
2017-05-28T15:29:51.985Z,6.80
2017-05-28T15:32:19.394Z,6.58
2017-05-28T15:34:46.782Z,6.16
2017-05-28T15:37:14.181Z,6.06
2017-05-28T15:39:41.493Z,6.72
2017-05-28T15:42:08.813Z,6.86
2017-05-28T15:44:36.164Z,6.94
2017-05-28T15:47:03.606Z,6.72
2017-05-28T15:49:31.065Z,6.10
2017-05-28T15:51:58.391Z,7.32
2017-05-28T15:54:25.884Z,5.98
2017-05-28T15:56:53.429Z,6.44
2017-05-28T15:59:20.656Z,6.08
2017-05-28T16:01:47.924Z,6.28
2017-05-28T16:04:15.337Z,6.14
2017-05-28T16:06:42.914Z,7.40
2017-05-28T16:09:10.363Z,5.92
2017-05-28T16:11:37.697Z,7.34
2017-05-28T16:14:05.302Z,6.12
2017-05-28T16:16:32.541Z,6.30
2017-05-28T16:18:59.917Z,6.70
2017-05-28T16:21:27.221Z,6.74
2017-05-28T16:23:54.457Z,6.34
2017-05-28T16:26:21.812Z,6.48
2017-05-28T16:28:49.212Z,6.82
2017-05-28T16:31:16.584Z,6.12
2017-05-28T16:33:43.901Z,5.74
2017-05-28T16:36:11.369Z,5.76
2017-05-28T16:38:38.998Z,6.52
2017-05-28T16:41:21.153Z,6.48
2017-05-28T16:43:48.432Z,6.30
2017-05-28T16:46:14.989Z,6.08
2017-05-28T16:48:42.286Z,6.46
2017-05-28T16:51:09.893Z,7.76
2017-05-28T16:53:37.273Z,7.02
2017-05-28T16:56:04.480Z,6.34
2017-05-28T16:58:31.917Z,6.26
2017-05-28T17:00:59.214Z,6.32
2017-05-28T17:03:26.752Z,5.52
2017-05-28T17:05:54.216Z,6.62
2017-05-28T17:08:21.908Z,6.58
2017-05-28T17:10:49.252Z,6.64
2017-05-28T17:13:16.909Z,6.36
2017-05-28T17:15:44.101Z,5.92
2017-05-28T17:18:11.444Z,6.18
2017-05-28T17:20:42.306Z,5.86
2017-05-28T17:23:09.842Z,6.06
2017-05-28T17:25:37.161Z,5.68
2017-05-28T17:28:04.406Z,7.02
2017-05-28T17:30:31.616Z,7.42
2017-05-28T17:33:02.926Z,7.72
2017-05-28T17:35:30.220Z,7.82
2017-05-28T17:37:57.412Z,7.00
2017-05-28T17:40:24.753Z,5.86
2017-05-28T17:42:52.069Z,6.56
2017-05-28T17:45:19.366Z,5.98
2017-05-28T17:47:50.460Z,7.52
2017-05-28T17:50:17.641Z,6.32
2017-05-28T17:52:44.961Z,6.40
2017-05-28T17:55:12.198Z,5.38
2017-05-28T17:57:39.527Z,6.48
2017-05-28T18:00:10.535Z,6.68
2017-05-28T18:02:37.832Z,7.74
2017-05-28T18:05:05.160Z,7.00
2017-05-28T18:07:32.483Z,6.76
2017-05-28T18:09:59.789Z,6.88
2017-05-28T18:12:33.186Z,6.96
2017-05-28T18:15:00.405Z,6.86
2017-05-28T18:17:27.777Z,7.58
2017-05-28T18:19:55.078Z,7.16
2017-05-28T18:22:30.811Z,6.98
2017-05-28T18:24:58.933Z,7.54
2017-05-28T18:27:26.268Z,7.26
2017-05-28T18:29:53.585Z,7.08
2017-05-28T18:32:20.917Z,7.50
2017-05-28T18:34:48.255Z,7.78
2017-05-28T18:37:16.108Z,7.42
2017-05-28T18:39:49.455Z,8.20
2017-05-28T18:42:16.792Z,7.96
2017-05-28T18:44:44.097Z,7.00
2017-05-28T18:47:16.993Z,8.04
2017-05-28T18:49:44.337Z,9.10
2017-05-28T18:52:10.889Z,8.76
2017-05-28T18:54:38.153Z,8.30
2017-05-28T18:57:05.440Z,9.54
2017-05-28T18:59:32.752Z,8.68
2017-05-28T19:01:59.949Z,9.60
2017-05-28T19:04:27.454Z,8.84
2017-05-28T19:06:54.745Z,8.70
2017-05-28T19:09:23.861Z,10.52
2017-05-28T19:11:51.201Z,8.72
2017-05-28T19:14:19.393Z,10.70
2017-05-28T19:16:46.712Z,10.40
2017-05-28T19:19:14.095Z,11.80
2017-05-28T19:21:41.445Z,11.10
2017-05-28T19:24:08.758Z,10.12
2017-05-28T19:26:41.248Z,10.76
2017-05-28T19:29:08.564Z,9.32
2017-05-28T19:31:35.888Z,12.20
2017-05-28T19:34:03.204Z,10.10
2017-05-28T19:36:30.525Z,10.10
2017-05-28T19:38:57.918Z,12.84
2017-05-28T19:41:25.225Z,11.48
2017-05-28T19:43:52.540Z,10.24
2017-05-28T19:46:19.849Z,11.00
2017-05-28T19:48:47.089Z,9.84
2017-05-28T19:51:14.269Z,11.26
2017-05-28T19:53:41.568Z,12.34
2017-05-28T19:56:08.153Z,16.78
2017-05-28T19:58:35.461Z,10.76
2017-05-28T20:01:02.809Z,11.76
2017-05-28T20:03:30.017Z,14.98
2017-05-28T20:05:57.382Z,12.96
2017-05-28T20:08:30.079Z,11.92
2017-05-28T20:10:57.457Z,13.98
2017-05-28T20:13:24.740Z,11.28
2017-05-28T20:15:52.068Z,16.78
2017-05-28T20:18:19.423Z,12.28
2017-05-28T20:20:51.481Z,15.14
2017-05-28T20:23:18.728Z,12.12
2017-05-28T20:25:46.016Z,10.94
2017-05-28T20:28:13.383Z,12.26
2017-05-28T20:30:41.213Z,12.44
2017-05-28T20:33:15.205Z,11.94
2017-05-28T20:35:42.513Z,10.70
2017-05-28T20:38:09.840Z,12.18
2017-05-28T20:40:37.149Z,12.02
2017-05-28T20:43:04.475Z,13.36
2017-05-28T20:45:36.291Z,11.24
2017-05-28T20:48:03.596Z,11.24
2017-05-28T20:50:30.942Z,14.16
2017-05-28T20:52:58.215Z,13.42
2017-05-28T20:55:25.529Z,15.60
2017-05-28T20:57:52.837Z,12.30
2017-05-28T21:00:25.828Z,12.74
2017-05-28T21:02:53.073Z,12.60
2017-05-28T21:05:20.364Z,13.12
2017-05-28T21:07:47.656Z,13.46
2017-05-28T21:10:14.970Z,12.42
2017-05-28T21:12:44.045Z,13.32
2017-05-28T21:15:11.354Z,15.52
2017-05-28T21:17:38.682Z,14.50
2017-05-28T21:20:05.213Z,14.44
2017-05-28T21:22:32.725Z,12.78
2017-05-28T21:24:59.952Z,13.96
2017-05-28T21:27:27.352Z,12.18
2017-05-28T21:29:54.706Z,12.40
2017-05-28T21:32:22.060Z,12.64
2017-05-28T21:34:49.490Z,15.16
2017-05-28T21:37:16.784Z,14.16
2017-05-28T21:39:44.052Z,14.46
2017-05-28T21:42:11.360Z,12.46
2017-05-28T21:44:38.669Z,13.94
2017-05-28T21:47:05.856Z,13.42
2017-05-28T21:49:32.417Z,14.12
2017-05-28T21:51:59.752Z,12.44
2017-05-28T21:54:27.765Z,14.98
2017-05-28T21:56:54.466Z,13.44
2017-05-28T21:59:21.820Z,13.74
2017-05-28T22:01:49.378Z,14.78
2017-05-28T22:04:16.979Z,13.46
2017-05-28T22:06:44.258Z,12.32
2017-05-28T22:09:11.679Z,13.42
2017-05-28T22:11:39.835Z,14.16
2017-05-28T22:14:07.317Z,14.56
2017-05-28T22:16:34.610Z,14.00
2017-05-28T22:19:02.156Z,13.84
2017-05-28T22:21:29.555Z,14.44
2017-05-28T22:23:57.244Z,13.68
2017-05-28T22:26:24.651Z,16.22
2017-05-28T22:28:51.979Z,15.18
2017-05-28T22:31:19.290Z,16.14
2017-05-28T22:33:46.640Z,15.18
2017-05-28T22:36:14.179Z,15.26
2017-05-28T22:38:41.491Z,19.56
2017-05-28T22:41:08.827Z,13.20
2017-05-28T22:43:36.163Z,13.68
2017-05-28T22:46:03.527Z,14.68
2017-05-28T22:48:31.255Z,12.36
2017-05-28T22:50:58.833Z,14.36
2017-05-28T22:53:26.753Z,13.62
2017-05-28T22:55:54.877Z,13.06
2017-05-28T22:58:24.678Z,13.28
2017-05-28T23:00:53.396Z,12.56
2017-05-28T23:03:20.760Z,17.68
2017-05-28T23:05:48.179Z,13.50
2017-05-28T23:08:14.889Z,13.82
2017-05-28T23:10:42.131Z,13.44
2017-05-28T23:13:09.520Z,12.80
2017-05-28T23:15:36.116Z,14.02
2017-05-28T23:18:03.550Z,14.38
2017-05-28T23:20:30.500Z,13.06
2017-05-28T23:22:57.915Z,13.88
2017-05-28T23:25:25.320Z,13.92
2017-05-28T23:27:51.975Z,13.52
2017-05-28T23:30:19.424Z,12.88
2017-05-28T23:32:46.764Z,13.06
2017-05-28T23:35:14.399Z,12.88
2017-05-28T23:37:41.815Z,13.64
2017-05-28T23:40:09.108Z,13.38
2017-05-28T23:42:36.422Z,12.60
2017-05-28T23:45:03.760Z,13.74
2017-05-28T23:47:30.383Z,13.92
2017-05-28T23:49:57.741Z,14.24
2017-05-28T23:52:25.941Z,13.60
2017-05-28T23:54:53.360Z,15.04
2017-05-28T23:57:20.769Z,13.92
2017-05-28T23:59:49.736Z,16.16
